createdAt,value
2017-02-15T00:00:08.577Z,1025.87
2017-02-15T00:00:34.742Z,1025.86
2017-02-15T00:01:00.936Z,1025.86
2017-02-15T00:01:27.152Z,1025.87
2017-02-15T00:01:53.285Z,1025.82
2017-02-15T00:02:19.464Z,1025.85
2017-02-15T00:02:45.612Z,1025.83
2017-02-15T00:03:11.753Z,1025.84
2017-02-15T00:03:38.003Z,1025.85
2017-02-15T00:04:04.145Z,1025.81
2017-02-15T00:04:30.301Z,1025.83
2017-02-15T00:04:56.464Z,1025.82
2017-02-15T00:05:22.616Z,1025.81
2017-02-15T00:05:48.771Z,1025.81
2017-02-15T00:06:14.925Z,1025.82
2017-02-15T00:06:41.080Z,1025.82
2017-02-15T00:07:07.230Z,1025.81
2017-02-15T00:07:33.486Z,1025.8
2017-02-15T00:07:59.654Z,1025.86
2017-02-15T00:08:25.766Z,1025.83
2017-02-15T00:08:51.910Z,1025.82
2017-02-15T00:09:18.082Z,1025.85
2017-02-15T00:09:44.236Z,1025.82
2017-02-15T00:10:10.412Z,1025.85
2017-02-15T00:10:36.510Z,1025.83
2017-02-15T00:11:02.658Z,1025.85
2017-02-15T00:11:28.780Z,1025.85
2017-02-15T00:11:54.945Z,1025.87
2017-02-15T00:12:21.092Z,1025.85
2017-02-15T00:12:47.227Z,1025.85
2017-02-15T00:13:13.395Z,1025.85
2017-02-15T00:13:39.544Z,1025.81
2017-02-15T00:14:05.727Z,1025.84
2017-02-15T00:14:31.867Z,1025.82
2017-02-15T00:14:58.077Z,1025.8
2017-02-15T00:15:24.221Z,1025.84
2017-02-15T00:15:50.360Z,1025.81
2017-02-15T00:16:16.541Z,1025.81
2017-02-15T00:16:42.666Z,1025.83
2017-02-15T00:17:08.801Z,1025.82
2017-02-15T00:17:34.962Z,1025.82
2017-02-15T00:18:01.090Z,1025.87
2017-02-15T00:18:27.257Z,1025.83
2017-02-15T00:18:53.394Z,1025.83
2017-02-15T00:19:19.532Z,1025.83
2017-02-15T00:19:45.720Z,1025.82
2017-02-15T00:20:11.897Z,1025.83
2017-02-15T00:20:38.016Z,1025.82
2017-02-15T00:21:04.171Z,1025.8
2017-02-15T00:21:30.377Z,1025.8
2017-02-15T00:21:56.546Z,1025.78
2017-02-15T00:22:22.696Z,1025.76
2017-02-15T00:22:48.849Z,1025.76
2017-02-15T00:23:15.007Z,1025.77
2017-02-15T00:23:41.152Z,1025.77
2017-02-15T00:24:07.275Z,1025.76
2017-02-15T00:24:33.399Z,1025.75
2017-02-15T00:24:59.510Z,1025.82
2017-02-15T00:25:25.707Z,1025.77
2017-02-15T00:25:51.829Z,1025.75
2017-02-15T00:26:17.980Z,1025.77
2017-02-15T00:26:44.110Z,1025.78
2017-02-15T00:27:10.220Z,1025.76
2017-02-15T00:27:36.314Z,1025.77
2017-02-15T00:28:02.443Z,1025.73
2017-02-15T00:28:28.565Z,1025.75
2017-02-15T00:28:54.751Z,1025.74
2017-02-15T00:29:20.912Z,1025.78
2017-02-15T00:29:47.060Z,1025.75
2017-02-15T00:30:13.185Z,1025.78
2017-02-15T00:30:39.303Z,1025.76
2017-02-15T00:31:05.430Z,1025.78
2017-02-15T00:31:31.608Z,1025.76
2017-02-15T00:31:57.724Z,1025.78
2017-02-15T00:32:23.928Z,1025.78
2017-02-15T00:32:50.080Z,1025.76
2017-02-15T00:33:16.236Z,1025.79
2017-02-15T00:33:42.370Z,1025.77
2017-02-15T00:34:08.522Z,1025.77
2017-02-15T00:34:34.683Z,1025.77
2017-02-15T00:35:00.788Z,1025.78
2017-02-15T00:35:26.915Z,1025.76
2017-02-15T00:35:53.093Z,1025.78
2017-02-15T00:36:19.301Z,1025.8
2017-02-15T00:36:45.425Z,1025.78
2017-02-15T00:37:11.614Z,1025.83
2017-02-15T00:37:37.763Z,1025.81
2017-02-15T00:38:03.932Z,1025.8
2017-02-15T00:38:30.054Z,1025.78
2017-02-15T00:38:56.177Z,1025.78
2017-02-15T00:39:22.288Z,1025.76
2017-02-15T00:39:48.534Z,1025.8
2017-02-15T00:40:14.694Z,1025.79
2017-02-15T00:40:40.831Z,1025.77
2017-02-15T00:41:07.038Z,1025.82
2017-02-15T00:41:33.183Z,1025.81
2017-02-15T00:41:59.289Z,1025.79
2017-02-15T00:42:25.524Z,1025.81
2017-02-15T00:42:51.612Z,1025.82
2017-02-15T00:43:17.734Z,1025.81
2017-02-15T00:43:43.920Z,1025.8
2017-02-15T00:44:10.038Z,1025.82
2017-02-15T00:44:36.188Z,1025.79
2017-02-15T00:45:02.333Z,1025.8
2017-02-15T00:45:28.559Z,1025.83
2017-02-15T00:45:55.206Z,1025.81
2017-02-15T00:46:21.320Z,1025.78
2017-02-15T00:46:47.454Z,1025.83
2017-02-15T00:47:13.600Z,1025.81
2017-02-15T00:47:39.700Z,1025.82
2017-02-15T00:48:05.903Z,1025.8
2017-02-15T00:48:32.085Z,1025.8
2017-02-15T00:48:58.266Z,1025.82
2017-02-15T00:49:24.389Z,1025.79
2017-02-15T00:49:50.500Z,1025.8
2017-02-15T00:50:16.669Z,1025.81
2017-02-15T00:50:42.814Z,1025.82
2017-02-15T00:51:08.946Z,1025.78
2017-02-15T00:51:35.117Z,1025.8
2017-02-15T00:52:01.243Z,1025.82
2017-02-15T00:52:27.369Z,1025.79
2017-02-15T00:52:53.540Z,1025.79
2017-02-15T00:53:19.723Z,1025.8
2017-02-15T00:53:45.848Z,1025.75
2017-02-15T00:54:12.050Z,1025.77
2017-02-15T00:54:38.184Z,1025.79
2017-02-15T00:55:04.299Z,1025.74
2017-02-15T00:55:30.416Z,1025.78
2017-02-15T00:55:56.549Z,1025.77
2017-02-15T00:56:22.689Z,1025.79
2017-02-15T00:56:48.810Z,1025.76
2017-02-15T00:57:14.929Z,1025.8
2017-02-15T00:57:41.075Z,1025.81
2017-02-15T00:58:07.178Z,1025.8
2017-02-15T00:58:33.276Z,1025.82
2017-02-15T00:58:59.414Z,1025.79
2017-02-15T00:59:25.522Z,1025.77
2017-02-15T00:59:51.642Z,1025.79
2017-02-15T01:00:17.819Z,1025.79
2017-02-15T01:00:43.943Z,1025.81
2017-02-15T01:01:10.087Z,1025.79
2017-02-15T01:01:36.191Z,1025.81
2017-02-15T01:02:02.346Z,1025.79
2017-02-15T01:02:28.491Z,1025.82
2017-02-15T01:02:54.655Z,1025.79
2017-02-15T01:03:20.800Z,1025.79
2017-02-15T01:03:46.960Z,1025.79
2017-02-15T01:04:13.067Z,1025.8
2017-02-15T01:04:39.187Z,1025.81
2017-02-15T01:05:05.347Z,1025.83
2017-02-15T01:05:31.525Z,1025.8
2017-02-15T01:05:57.730Z,1025.85
2017-02-15T01:06:23.898Z,1025.84
2017-02-15T01:06:50.056Z,1025.83
2017-02-15T01:07:16.188Z,1025.83
2017-02-15T01:07:42.391Z,1025.83
2017-02-15T01:08:08.539Z,1025.84
2017-02-15T01:08:34.686Z,1025.86
2017-02-15T01:09:00.881Z,1025.9
2017-02-15T01:09:27.035Z,1025.88
2017-02-15T01:09:53.218Z,1025.81
2017-02-15T01:10:19.331Z,1025.86
2017-02-15T01:10:45.454Z,1025.87
2017-02-15T01:11:11.582Z,1025.84
2017-02-15T01:11:37.842Z,1025.87
2017-02-15T01:12:03.977Z,1025.84
2017-02-15T01:12:30.204Z,1025.89
2017-02-15T01:12:56.349Z,1025.85
2017-02-15T01:13:22.498Z,1025.82
2017-02-15T01:13:48.734Z,1025.86
2017-02-15T01:14:14.857Z,1025.85
2017-02-15T01:14:41.003Z,1025.83
2017-02-15T01:15:07.148Z,1025.85
2017-02-15T01:15:33.248Z,1025.83
2017-02-15T01:15:59.394Z,1025.85
2017-02-15T01:16:25.586Z,1025.83
2017-02-15T01:16:51.780Z,1025.83
2017-02-15T01:17:17.886Z,1025.86
2017-02-15T01:17:43.985Z,1025.84
2017-02-15T01:18:10.079Z,1025.86
2017-02-15T01:18:36.251Z,1025.87
2017-02-15T01:19:02.378Z,1025.87
2017-02-15T01:19:28.501Z,1025.84
2017-02-15T01:19:54.674Z,1025.87
2017-02-15T01:20:20.808Z,1025.85
2017-02-15T01:20:46.986Z,1025.88
2017-02-15T01:21:13.149Z,1025.86
2017-02-15T01:21:39.295Z,1025.87
2017-02-15T01:22:05.411Z,1025.88
2017-02-15T01:22:31.575Z,1025.93
2017-02-15T01:22:57.700Z,1025.91
2017-02-15T01:23:23.839Z,1025.89
2017-02-15T01:23:50.062Z,1025.94
2017-02-15T01:24:16.191Z,1025.87
2017-02-15T01:24:42.331Z,1025.88
2017-02-15T01:25:08.500Z,1025.96
2017-02-15T01:25:34.638Z,1025.87
2017-02-15T01:26:00.802Z,1025.92
2017-02-15T01:26:26.954Z,1025.92
2017-02-15T01:26:53.102Z,1025.9
2017-02-15T01:27:19.253Z,1025.89
2017-02-15T01:27:45.455Z,1025.88
2017-02-15T01:28:11.605Z,1025.87
2017-02-15T01:28:37.720Z,1025.86
2017-02-15T01:29:03.892Z,1025.93
2017-02-15T01:29:29.997Z,1025.89
2017-02-15T01:29:56.170Z,1025.89
2017-02-15T01:30:22.317Z,1025.9
2017-02-15T01:30:48.488Z,1025.88
2017-02-15T01:31:14.616Z,1025.9
2017-02-15T01:31:40.746Z,1025.87
2017-02-15T01:32:06.918Z,1025.9
2017-02-15T01:32:33.038Z,1025.9
2017-02-15T01:32:59.203Z,1025.88
2017-02-15T01:33:25.346Z,1025.84
2017-02-15T01:33:51.464Z,1025.87
2017-02-15T01:34:17.567Z,1025.85
2017-02-15T01:34:43.689Z,1025.85
2017-02-15T01:35:09.849Z,1025.86
2017-02-15T01:35:35.985Z,1025.87
2017-02-15T01:36:02.105Z,1025.85
2017-02-15T01:36:28.322Z,1025.9
2017-02-15T01:36:54.466Z,1025.86
2017-02-15T01:37:20.585Z,1025.93
2017-02-15T01:37:46.710Z,1025.89
2017-02-15T01:38:12.848Z,1025.91
2017-02-15T01:38:38.981Z,1025.93
2017-02-15T01:39:05.131Z,1025.9
2017-02-15T01:39:31.267Z,1025.89
2017-02-15T01:39:57.457Z,1025.88
2017-02-15T01:40:23.659Z,1025.89
2017-02-15T01:40:49.812Z,1025.88
2017-02-15T01:41:15.966Z,1025.92
2017-02-15T01:41:42.113Z,1025.88
2017-02-15T01:42:08.213Z,1025.88
2017-02-15T01:42:34.393Z,1025.89
2017-02-15T01:43:00.537Z,1025.87
2017-02-15T01:43:26.668Z,1025.87
2017-02-15T01:43:52.787Z,1025.85
2017-02-15T01:44:18.929Z,1025.86
2017-02-15T01:44:45.061Z,1025.84
2017-02-15T01:45:11.195Z,1025.85
2017-02-15T01:45:37.350Z,1025.82
2017-02-15T01:46:03.499Z,1025.81
2017-02-15T01:46:29.640Z,1025.8
2017-02-15T01:46:55.810Z,1025.83
2017-02-15T01:47:21.978Z,1025.77
2017-02-15T01:47:48.143Z,1025.79
2017-02-15T01:48:14.276Z,1025.78
2017-02-15T01:48:40.372Z,1025.79
2017-02-15T01:49:06.573Z,1025.82
2017-02-15T01:49:32.746Z,1025.79
2017-02-15T01:49:58.867Z,1025.81
2017-02-15T01:50:25.023Z,1025.82
2017-02-15T01:50:51.171Z,1025.79
2017-02-15T01:51:17.374Z,1025.85
2017-02-15T01:51:43.478Z,1025.8
2017-02-15T01:52:09.597Z,1025.82
2017-02-15T01:52:35.706Z,1025.81
2017-02-15T01:53:01.849Z,1025.79
2017-02-15T01:53:27.938Z,1025.79
2017-02-15T01:53:54.094Z,1025.78
2017-02-15T01:54:20.212Z,1025.81
2017-02-15T01:54:46.356Z,1025.79
2017-02-15T01:55:12.539Z,1025.8
2017-02-15T01:55:38.713Z,1025.79
2017-02-15T01:56:04.869Z,1025.8
2017-02-15T01:56:31.044Z,1025.77
2017-02-15T01:56:57.137Z,1025.8
2017-02-15T01:57:23.294Z,1025.76
2017-02-15T01:57:49.441Z,1025.74
2017-02-15T01:58:15.562Z,1025.76
2017-02-15T01:58:41.745Z,1025.74
2017-02-15T01:59:07.945Z,1025.78
2017-02-15T01:59:34.074Z,1025.78
2017-02-15T02:00:00.169Z,1025.75
2017-02-15T02:00:26.284Z,1025.72
2017-02-15T02:00:52.414Z,1025.77
2017-02-15T02:01:18.533Z,1025.76
2017-02-15T02:01:44.674Z,1025.77
2017-02-15T02:02:10.800Z,1025.76
2017-02-15T02:02:36.972Z,1025.74
2017-02-15T02:03:03.095Z,1025.74
2017-02-15T02:03:29.230Z,1025.75
2017-02-15T02:03:55.428Z,1025.76
2017-02-15T02:04:21.560Z,1025.78
2017-02-15T02:04:47.706Z,1025.73
2017-02-15T02:05:13.910Z,1025.72
2017-02-15T02:05:40.080Z,1025.71
2017-02-15T02:06:06.199Z,1025.73
2017-02-15T02:06:32.335Z,1025.72
2017-02-15T02:06:58.467Z,1025.75
2017-02-15T02:07:24.568Z,1025.73
2017-02-15T02:07:50.702Z,1025.75
2017-02-15T02:08:16.848Z,1025.69
2017-02-15T02:08:43.069Z,1025.73
2017-02-15T02:09:09.201Z,1025.75
2017-02-15T02:09:35.298Z,1025.7
2017-02-15T02:10:01.409Z,1025.68
2017-02-15T02:10:27.548Z,1025.75
2017-02-15T02:10:53.643Z,1025.73
2017-02-15T02:11:19.774Z,1025.72
2017-02-15T02:11:45.886Z,1025.72
2017-02-15T02:12:12.083Z,1025.71
2017-02-15T02:12:38.241Z,1025.71
2017-02-15T02:13:04.413Z,1025.7
2017-02-15T02:13:30.617Z,1025.65
2017-02-15T02:13:56.787Z,1025.69
2017-02-15T02:14:22.960Z,1025.66
2017-02-15T02:14:49.125Z,1025.66
2017-02-15T02:15:15.280Z,1025.64
2017-02-15T02:15:41.391Z,1025.68
2017-02-15T02:16:07.500Z,1025.69
2017-02-15T02:16:33.639Z,1025.67
2017-02-15T02:16:59.751Z,1025.64
2017-02-15T02:17:25.913Z,1025.67
2017-02-15T02:17:52.056Z,1025.69
2017-02-15T02:18:18.218Z,1025.68
2017-02-15T02:18:44.343Z,1025.73
2017-02-15T02:19:10.454Z,1025.69
2017-02-15T02:19:36.562Z,1025.7
2017-02-15T02:20:02.705Z,1025.66
2017-02-15T02:20:28.875Z,1025.65
2017-02-15T02:20:55.073Z,1025.71
2017-02-15T02:21:21.188Z,1025.65
2017-02-15T02:21:47.353Z,1025.65
2017-02-15T02:22:13.529Z,1025.7
2017-02-15T02:22:39.676Z,1025.68
2017-02-15T02:23:05.806Z,1025.69
2017-02-15T02:23:31.945Z,1025.69
2017-02-15T02:23:58.079Z,1025.67
2017-02-15T02:24:24.223Z,1025.69
2017-02-15T02:24:50.339Z,1025.69
2017-02-15T02:25:16.474Z,1025.73
2017-02-15T02:25:42.667Z,1025.73
2017-02-15T02:26:08.762Z,1025.71
2017-02-15T02:26:34.913Z,1025.7
2017-02-15T02:27:01.026Z,1025.72
2017-02-15T02:27:27.148Z,1025.71
2017-02-15T02:27:53.289Z,1025.71
2017-02-15T02:28:19.455Z,1025.69
2017-02-15T02:28:45.649Z,1025.73
2017-02-15T02:29:11.802Z,1025.72
2017-02-15T02:29:37.964Z,1025.72
2017-02-15T02:30:04.063Z,1025.76
2017-02-15T02:30:30.266Z,1025.77
2017-02-15T02:30:56.391Z,1025.73
2017-02-15T02:31:22.483Z,1025.74
2017-02-15T02:31:48.633Z,1025.74
2017-02-15T02:32:14.791Z,1025.74
2017-02-15T02:32:40.940Z,1025.76
2017-02-15T02:33:07.096Z,1025.69
2017-02-15T02:33:33.262Z,1025.7
2017-02-15T02:33:59.431Z,1025.73
2017-02-15T02:34:25.596Z,1025.71
2017-02-15T02:34:51.771Z,1025.73
2017-02-15T02:35:17.948Z,1025.74
2017-02-15T02:35:44.077Z,1025.75
2017-02-15T02:36:10.196Z,1025.74
2017-02-15T02:36:36.336Z,1025.74
2017-02-15T02:37:02.467Z,1025.75
2017-02-15T02:37:28.565Z,1025.74
2017-02-15T02:37:54.698Z,1025.78
2017-02-15T02:38:20.840Z,1025.75
2017-02-15T02:38:46.981Z,1025.8
2017-02-15T02:39:13.086Z,1025.75
2017-02-15T02:39:39.228Z,1025.77
2017-02-15T02:40:05.399Z,1025.79
2017-02-15T02:40:31.531Z,1025.79
2017-02-15T02:40:57.685Z,1025.76
2017-02-15T02:41:23.848Z,1025.74
2017-02-15T02:41:49.990Z,1025.79
2017-02-15T02:42:16.134Z,1025.79
2017-02-15T02:42:42.258Z,1025.8
2017-02-15T02:43:08.425Z,1025.75
2017-02-15T02:43:34.576Z,1025.79
2017-02-15T02:44:00.707Z,1025.81
2017-02-15T02:44:26.879Z,1025.76
2017-02-15T02:44:53.062Z,1025.78
2017-02-15T02:45:19.213Z,1025.75
2017-02-15T02:45:45.424Z,1025.75
2017-02-15T02:46:11.551Z,1025.78
2017-02-15T02:46:37.688Z,1025.77
2017-02-15T02:47:03.844Z,1025.78
2017-02-15T02:47:29.988Z,1025.8
2017-02-15T02:47:56.168Z,1025.77
2017-02-15T02:48:22.346Z,1025.75
2017-02-15T02:48:48.444Z,1025.78
2017-02-15T02:49:14.583Z,1025.78
2017-02-15T02:49:40.751Z,1025.76
2017-02-15T02:50:06.897Z,1025.8
2017-02-15T02:50:33.038Z,1025.8
2017-02-15T02:50:59.171Z,1025.76
2017-02-15T02:51:25.294Z,1025.76
2017-02-15T02:51:51.436Z,1025.76
2017-02-15T02:52:17.585Z,1025.76
2017-02-15T02:52:43.736Z,1025.74
2017-02-15T02:53:09.896Z,1025.74
2017-02-15T02:53:36.013Z,1025.79
2017-02-15T02:54:02.176Z,1025.74
2017-02-15T02:54:28.314Z,1025.75
2017-02-15T02:54:54.461Z,1025.74
2017-02-15T02:55:20.626Z,1025.76
2017-02-15T02:55:46.799Z,1025.78
2017-02-15T02:56:12.921Z,1025.75
2017-02-15T02:56:39.077Z,1025.76
2017-02-15T02:57:05.218Z,1025.8
2017-02-15T02:57:31.314Z,1025.81
2017-02-15T02:57:57.474Z,1025.83
2017-02-15T02:58:23.623Z,1025.82
2017-02-15T02:58:49.722Z,1025.78
2017-02-15T02:59:15.819Z,1025.82
2017-02-15T02:59:42.015Z,1025.81
2017-02-15T03:00:08.118Z,1025.8
2017-02-15T03:00:34.264Z,1025.83
2017-02-15T03:01:00.428Z,1025.79
2017-02-15T03:01:26.586Z,1025.83
2017-02-15T03:01:52.710Z,1025.78
2017-02-15T03:02:18.876Z,1025.85
2017-02-15T03:02:45.039Z,1025.84
2017-02-15T03:03:11.138Z,1025.82
2017-02-15T03:03:37.299Z,1025.84
2017-02-15T03:04:03.387Z,1025.88
2017-02-15T03:04:29.532Z,1025.9
2017-02-15T03:04:55.636Z,1025.88
2017-02-15T03:05:21.784Z,1025.87
2017-02-15T03:05:47.887Z,1025.91
2017-02-15T03:06:14.065Z,1025.91
2017-02-15T03:06:40.207Z,1025.91
2017-02-15T03:07:06.430Z,1025.97
2017-02-15T03:07:32.542Z,1025.99
2017-02-15T03:07:58.697Z,1025.99
2017-02-15T03:08:24.819Z,1025.96
2017-02-15T03:08:51.039Z,1025.95
2017-02-15T03:09:17.144Z,1025.97
2017-02-15T03:09:43.257Z,1025.93
2017-02-15T03:10:09.397Z,1025.98
2017-02-15T03:10:35.562Z,1025.96
2017-02-15T03:11:01.699Z,1025.94
2017-02-15T03:11:27.820Z,1025.97
2017-02-15T03:11:53.921Z,1025.99
2017-02-15T03:12:20.071Z,1025.97
2017-02-15T03:12:46.194Z,1026
2017-02-15T03:13:12.340Z,1026.02
2017-02-15T03:13:38.517Z,1026.03
2017-02-15T03:14:04.618Z,1026.03
2017-02-15T03:14:30.757Z,1026.02
2017-02-15T03:14:56.851Z,1026.07
2017-02-15T03:15:22.975Z,1026.04
2017-02-15T03:15:49.146Z,1026.04
2017-02-15T03:16:15.326Z,1026.05
2017-02-15T03:16:41.450Z,1026.08
2017-02-15T03:17:07.595Z,1026.06
2017-02-15T03:17:33.722Z,1026.06
2017-02-15T03:17:59.840Z,1026.06
2017-02-15T03:18:26.019Z,1026.1
2017-02-15T03:18:52.215Z,1026.09
2017-02-15T03:19:18.337Z,1026.09
2017-02-15T03:19:44.476Z,1026.11
2017-02-15T03:20:10.596Z,1026.14
2017-02-15T03:20:36.736Z,1026.14
2017-02-15T03:21:02.863Z,1026.18
2017-02-15T03:21:28.988Z,1026.15
2017-02-15T03:21:55.126Z,1026.15
2017-02-15T03:22:21.264Z,1026.11
2017-02-15T03:22:47.383Z,1026.12
2017-02-15T03:23:13.492Z,1026.13
2017-02-15T03:23:39.653Z,1026.09
2017-02-15T03:24:05.812Z,1026.12
2017-02-15T03:24:31.969Z,1026.11
2017-02-15T03:24:58.140Z,1026.1
2017-02-15T03:25:24.237Z,1026.11
2017-02-15T03:25:50.407Z,1026.09
2017-02-15T03:26:16.529Z,1026.09
2017-02-15T03:26:42.688Z,1026.09
2017-02-15T03:27:08.863Z,1026.13
2017-02-15T03:27:35.008Z,1026.12
2017-02-15T03:28:01.114Z,1026.09
2017-02-15T03:28:27.307Z,1026.08
2017-02-15T03:28:53.521Z,1026.09
2017-02-15T03:29:19.621Z,1026.1
2017-02-15T03:29:45.792Z,1026.1
2017-02-15T03:30:11.915Z,1026.07
2017-02-15T03:30:38.065Z,1026.08
2017-02-15T03:31:04.169Z,1026.09
2017-02-15T03:31:30.336Z,1026.05
2017-02-15T03:31:56.483Z,1026.09
2017-02-15T03:32:22.577Z,1026.1
2017-02-15T03:32:48.705Z,1026.08
2017-02-15T03:33:14.845Z,1026.12
2017-02-15T03:33:40.977Z,1026.14
2017-02-15T03:34:07.119Z,1026.09
2017-02-15T03:34:33.265Z,1026.12
2017-02-15T03:34:59.363Z,1026.07
2017-02-15T03:35:25.481Z,1026.08
2017-02-15T03:35:51.649Z,1026.08
2017-02-15T03:36:17.854Z,1026.06
2017-02-15T03:36:43.959Z,1026.08
2017-02-15T03:37:10.141Z,1026.1
2017-02-15T03:37:36.262Z,1026.09
2017-02-15T03:38:02.439Z,1026.1
2017-02-15T03:38:28.537Z,1026.09
2017-02-15T03:38:54.630Z,1026.1
2017-02-15T03:39:20.746Z,1026.12
2017-02-15T03:39:46.914Z,1026.11
2017-02-15T03:40:13.041Z,1026.11
2017-02-15T03:40:39.206Z,1026.08
2017-02-15T03:41:05.437Z,1026.08
2017-02-15T03:41:31.525Z,1026.07
2017-02-15T03:41:57.658Z,1026.1
2017-02-15T03:42:23.859Z,1026.12
2017-02-15T03:42:49.981Z,1026.1
2017-02-15T03:43:16.107Z,1026.14
2017-02-15T03:43:42.273Z,1026.12
2017-02-15T03:44:08.457Z,1026.14
2017-02-15T03:44:34.633Z,1026.12
2017-02-15T03:45:00.757Z,1026.11
2017-02-15T03:45:26.910Z,1026.13
2017-02-15T03:45:53.002Z,1026.12
2017-02-15T03:46:19.204Z,1026.15
2017-02-15T03:46:45.336Z,1026.16
2017-02-15T03:47:11.451Z,1026.18
2017-02-15T03:47:37.611Z,1026.14
2017-02-15T03:48:03.731Z,1026.15
2017-02-15T03:48:29.872Z,1026.11
2017-02-15T03:48:56.007Z,1026.12
2017-02-15T03:49:22.126Z,1026.16
2017-02-15T03:49:48.241Z,1026.17
2017-02-15T03:50:14.404Z,1026.18
2017-02-15T03:50:40.524Z,1026.19
2017-02-15T03:51:06.661Z,1026.17
2017-02-15T03:51:32.769Z,1026.14
2017-02-15T03:51:58.888Z,1026.17
2017-02-15T03:52:24.991Z,1026.18
2017-02-15T03:52:51.103Z,1026.19
2017-02-15T03:53:17.306Z,1026.18
2017-02-15T03:53:43.528Z,1026.16
2017-02-15T03:54:09.674Z,1026.14
2017-02-15T03:54:36.425Z,1026.2
2017-02-15T03:55:02.563Z,1026.21
2017-02-15T03:55:28.681Z,1026.15
2017-02-15T03:55:54.810Z,1026.18
2017-02-15T03:56:21.013Z,1026.14
2017-02-15T03:56:47.163Z,1026.15
2017-02-15T03:57:13.286Z,1026.14
2017-02-15T03:57:39.399Z,1026.17
2017-02-15T03:58:05.582Z,1026.14
2017-02-15T03:58:31.757Z,1026.14
2017-02-15T03:58:57.961Z,1026.17
2017-02-15T03:59:24.101Z,1026.18
2017-02-15T03:59:50.242Z,1026.19
2017-02-15T04:00:16.367Z,1026.18
2017-02-15T04:00:42.515Z,1026.17
2017-02-15T04:01:08.685Z,1026.15
2017-02-15T04:01:34.861Z,1026.2
2017-02-15T04:02:00.982Z,1026.17
2017-02-15T04:02:27.099Z,1026.19
2017-02-15T04:02:53.286Z,1026.16
2017-02-15T04:03:19.431Z,1026.18
2017-02-15T04:03:45.541Z,1026.17
2017-02-15T04:04:11.680Z,1026.15
2017-02-15T04:04:37.841Z,1026.17
2017-02-15T04:05:03.954Z,1026.2
2017-02-15T04:05:30.091Z,1026.18
2017-02-15T04:05:56.243Z,1026.2
2017-02-15T04:06:22.376Z,1026.19
2017-02-15T04:06:48.580Z,1026.18
2017-02-15T04:07:14.753Z,1026.21
2017-02-15T04:07:40.937Z,1026.24
2017-02-15T04:08:07.133Z,1026.22
2017-02-15T04:08:33.258Z,1026.21
2017-02-15T04:08:59.434Z,1026.24
2017-02-15T04:09:25.609Z,1026.21
2017-02-15T04:09:51.741Z,1026.21
2017-02-15T04:10:17.873Z,1026.21
2017-02-15T04:10:44.054Z,1026.22
2017-02-15T04:11:10.207Z,1026.19
2017-02-15T04:11:36.377Z,1026.2
2017-02-15T04:12:02.506Z,1026.2
2017-02-15T04:12:28.594Z,1026.18
2017-02-15T04:12:54.766Z,1026.2
2017-02-15T04:13:20.897Z,1026.18
2017-02-15T04:13:47.071Z,1026.21
2017-02-15T04:14:13.266Z,1026.18
2017-02-15T04:14:39.434Z,1026.19
2017-02-15T04:15:05.580Z,1026.24
2017-02-15T04:15:31.753Z,1026.23
2017-02-15T04:15:57.962Z,1026.25
2017-02-15T04:16:24.135Z,1026.24
2017-02-15T04:16:50.291Z,1026.23
2017-02-15T04:17:16.390Z,1026.2
2017-02-15T04:17:42.584Z,1026.22
2017-02-15T04:18:08.725Z,1026.2
2017-02-15T04:18:34.844Z,1026.21
2017-02-15T04:19:00.987Z,1026.22
2017-02-15T04:19:27.126Z,1026.2
2017-02-15T04:19:53.219Z,1026.21
2017-02-15T04:20:19.348Z,1026.24
2017-02-15T04:20:45.490Z,1026.23
2017-02-15T04:21:11.587Z,1026.25
2017-02-15T04:21:37.746Z,1026.25
2017-02-15T04:22:03.899Z,1026.27
2017-02-15T04:22:30.056Z,1026.23
2017-02-15T04:22:56.261Z,1026.27
2017-02-15T04:23:22.433Z,1026.29
2017-02-15T04:23:48.619Z,1026.24
2017-02-15T04:24:14.758Z,1026.26
2017-02-15T04:24:40.853Z,1026.26
2017-02-15T04:25:06.984Z,1026.31
2017-02-15T04:25:33.097Z,1026.27
2017-02-15T04:25:59.217Z,1026.28
2017-02-15T04:26:25.366Z,1026.33
2017-02-15T04:26:51.545Z,1026.3
2017-02-15T04:27:17.695Z,1026.32
2017-02-15T04:27:43.791Z,1026.31
2017-02-15T04:28:09.938Z,1026.29
2017-02-15T04:28:36.108Z,1026.3
2017-02-15T04:29:02.222Z,1026.26
2017-02-15T04:29:28.330Z,1026.32
2017-02-15T04:29:54.506Z,1026.31
2017-02-15T04:30:20.620Z,1026.34
2017-02-15T04:30:46.727Z,1026.33
2017-02-15T04:31:12.897Z,1026.32
2017-02-15T04:31:39.077Z,1026.34
2017-02-15T04:32:05.245Z,1026.31
2017-02-15T04:32:31.433Z,1026.31
2017-02-15T04:32:57.542Z,1026.3
2017-02-15T04:33:23.708Z,1026.27
2017-02-15T04:33:49.856Z,1026.28
2017-02-15T04:34:15.987Z,1026.29
2017-02-15T04:34:42.129Z,1026.25
2017-02-15T04:35:08.310Z,1026.28
2017-02-15T04:35:34.433Z,1026.27
2017-02-15T04:36:00.576Z,1026.26
2017-02-15T04:36:26.676Z,1026.29
2017-02-15T04:36:52.791Z,1026.27
2017-02-15T04:37:18.995Z,1026.25
2017-02-15T04:37:45.127Z,1026.23
2017-02-15T04:38:11.261Z,1026.26
2017-02-15T04:38:37.385Z,1026.23
2017-02-15T04:39:03.533Z,1026.26
2017-02-15T04:39:29.645Z,1026.27
2017-02-15T04:39:55.797Z,1026.26
2017-02-15T04:40:21.943Z,1026.26
2017-02-15T04:40:48.090Z,1026.28
2017-02-15T04:41:14.216Z,1026.28
2017-02-15T04:41:40.336Z,1026.28
2017-02-15T04:42:06.480Z,1026.28
2017-02-15T04:42:32.639Z,1026.29
2017-02-15T04:42:58.734Z,1026.25
2017-02-15T04:43:24.869Z,1026.27
2017-02-15T04:43:50.999Z,1026.26
2017-02-15T04:44:17.142Z,1026.26
2017-02-15T04:44:43.274Z,1026.25
2017-02-15T04:45:09.415Z,1026.24
2017-02-15T04:45:35.591Z,1026.22
2017-02-15T04:46:01.754Z,1026.25
2017-02-15T04:46:27.847Z,1026.24
2017-02-15T04:46:53.983Z,1026.22
2017-02-15T04:47:20.096Z,1026.22
2017-02-15T04:47:46.237Z,1026.28
2017-02-15T04:48:12.422Z,1026.26
2017-02-15T04:48:38.569Z,1026.3
2017-02-15T04:49:04.714Z,1026.27
2017-02-15T04:49:30.858Z,1026.3
2017-02-15T04:49:57.009Z,1026.26
2017-02-15T04:50:23.115Z,1026.26
2017-02-15T04:50:49.257Z,1026.28
2017-02-15T04:51:15.398Z,1026.25
2017-02-15T04:51:41.532Z,1026.29
2017-02-15T04:52:07.672Z,1026.27
2017-02-15T04:52:33.792Z,1026.25
2017-02-15T04:52:59.913Z,1026.27
2017-02-15T04:53:26.092Z,1026.27
2017-02-15T04:53:52.188Z,1026.28
2017-02-15T04:54:18.337Z,1026.28
2017-02-15T04:54:44.475Z,1026.27
2017-02-15T04:55:10.578Z,1026.25
2017-02-15T04:55:36.779Z,1026.27
2017-02-15T04:56:02.931Z,1026.27
2017-02-15T04:56:29.031Z,1026.3
2017-02-15T04:56:55.229Z,1026.3
2017-02-15T04:57:21.408Z,1026.33
2017-02-15T04:57:47.548Z,1026.34
2017-02-15T04:58:13.731Z,1026.33
2017-02-15T04:58:39.830Z,1026.34
2017-02-15T04:59:05.955Z,1026.3
2017-02-15T04:59:32.095Z,1026.34
2017-02-15T04:59:58.195Z,1026.33
2017-02-15T05:00:24.329Z,1026.36
2017-02-15T05:00:50.430Z,1026.35
2017-02-15T05:01:16.575Z,1026.35
2017-02-15T05:01:42.754Z,1026.35
2017-02-15T05:02:08.885Z,1026.34
2017-02-15T05:02:35.000Z,1026.34
2017-02-15T05:03:01.174Z,1026.32
2017-02-15T05:03:27.280Z,1026.31
2017-02-15T05:03:53.426Z,1026.3
2017-02-15T05:04:19.599Z,1026.29
2017-02-15T05:04:45.796Z,1026.32
2017-02-15T05:05:11.995Z,1026.3
2017-02-15T05:05:38.154Z,1026.33
2017-02-15T05:06:04.282Z,1026.3
2017-02-15T05:06:30.397Z,1026.3
2017-02-15T05:06:56.556Z,1026.28
2017-02-15T05:07:22.760Z,1026.24
2017-02-15T05:07:48.920Z,1026.29
2017-02-15T05:08:15.062Z,1026.33
2017-02-15T05:08:41.231Z,1026.28
2017-02-15T05:09:07.365Z,1026.27
2017-02-15T05:09:33.511Z,1026.3
2017-02-15T05:09:59.627Z,1026.32
2017-02-15T05:10:25.755Z,1026.31
2017-02-15T05:10:51.922Z,1026.31
2017-02-15T05:11:18.056Z,1026.3
2017-02-15T05:11:44.203Z,1026.29
2017-02-15T05:12:10.374Z,1026.33
2017-02-15T05:12:36.512Z,1026.32
2017-02-15T05:13:02.605Z,1026.27
2017-02-15T05:13:28.779Z,1026.3
2017-02-15T05:13:54.941Z,1026.31
2017-02-15T05:14:21.037Z,1026.29
2017-02-15T05:14:47.144Z,1026.28
2017-02-15T05:15:13.317Z,1026.29
2017-02-15T05:15:39.429Z,1026.32
2017-02-15T05:16:05.628Z,1026.27
2017-02-15T05:16:31.768Z,1026.28
2017-02-15T05:16:57.948Z,1026.29
2017-02-15T05:17:24.087Z,1026.3